KOPF/OPF METAR and TAF weather

Enter ICAO airport designator
Station Type Date Time Source
KOPF METAR 2019/02/16 06:53 UTC NOAA

KOPF 160653Z AUTO 32003KT 10SM CLR 18/14 A2995 RMK AO2 SLP142 T01830139


Station Type Date Time Source
KOPF Decoded METAR 2019/02/16 06:53 UTC NOAA

MIAMI OPA LOCKA AIRPORT, FL, United States (KOPF) 25-54N 80-17W 16M
Feb 16, 2019 - 01:53 AM EST / 2019.02.16 0653 UTC
Wind: from the NW (320 degrees) at 3 MPH (3 KT):0
Visibility: 10 mile(s):0
Sky conditions: clear
Temperature: 64.9 F (18.3 C)
Dew Point: 57.0 F (13.9 C)
Relative Humidity: 75%
Pressure (altimeter): 29.95 in. Hg (1014 hPa)
ob: KOPF 160653Z AUTO 32003KT 10SM CLR 18/14 A2995 RMK AO2 SLP142 T01830139
cycle: 7

Station Type Date Time Source
KOPF TAF 2019/02/16 06:39 UTC NOAA

TAF KOPF 160536Z 1606/1706 VRB04KT P6SM FEW030 BKN050
FM161500 23009KT P6SM SCT030 SCT050
FM170100 VRB03KT P6SM FEW025


Example: see airport list